Terminal Aerodrome Forecast
Issued by NWS Albany, NY

Home | Current Version | Previous Version | Text Only | Print | Product List | Glossary On
Versions: 1 2 3 4 5 6 7 8 9 10 11 12 13 14 15 16 17 18 19 20 21
000
FTUS41 KALY 301734
TAFPOU
TAF
KPOU 301734Z 3018/3118 19008G18KT P6SM FEW020 SCT040 SCT100
      TEMPO 3018/3020 BKN040
     FM302000 20010KT P6SM VCSH BKN045
     FM310500 18006KT 5SM -SHRA BR SCT020 OVC035
     FM310800 18005KT 5SM -SHRA BR SCT010 BKN020
     FM311200 VRB06KT 5SM -SHRA BR BKN010 OVC020=

USA.gov is the U.S. government's official web portal to all federal, state and local government web resources and services.